Oden, AR (71961)

2:12 AM CDT on April 27, 2015 (GMT -0500)
RAWS | | Change Station
CLOSE
Current Station
Personal Weather Station
Location: Oden, AR
Elevation: 896 ft
Nearby Weather Stations

Elev 896 ft 34.62 °N, 93.81 °W | Updated 45 minutes ago

Overcast
Overcast
56 °F
Feels Like 56 °F
N
2
Wind Variable Wind from ENE
Gusts 8.0 mph

Today
High -- | Low -- °F
--% Chance of Precip.
Yesterday
High -- | Low -- °F
Precip. -- in
6:29 AM 7:56 PM
Waxing Gibbous, 62% visible
Pressure 29.87 in
Visibility 10.0 miles
Clouds Few 7500 ft
Overcast 11000 ft
Dew Point 51 °F
Humidity 82%
Rainfall in
Snow Depth Not available.
UV 0 out of 12
Pollen 10.10 out of 12
Air Quality Not available.
Flu Activity Sporadic
METAR KMWT 270653Z AUTO VRB03KT 10SM FEW075 OVC110 14/09 A2988 RMK AO2 SLP113 T01390089 $

More Conditions Fewer Conditions

Pressure 29.87 in
Visibility 10.0 miles
Clouds Few 7500 ft
Overcast 11000 ft
Dew Point 51 °F
Humidity 82%
Rainfall in
Snow Depth Not available.
UV 0 out of 12
Pollen 10.10 out of 12
Air Quality Not available.
Flu Activity Sporadic
METAR KMWT 270653Z AUTO VRB03KT 10SM FEW075 OVC110 14/09 A2988 RMK AO2 SLP113 T01390089 $

More Conditions Fewer Conditions

10-Day Weather Forecast

Almanac

Astronomy

Apr. 27, 2015 Rise Set
Actual Time
Civil Twilight
Nautical Twilight
Astronomical Twilight
Moon
Length of Visible Light
Length of Day
Tomorrow will be .
, % of the Moon is Illuminated

Today's Extremes

State Highs State Lows

Community

WunderPhotos

Upload Photos

1,817,267 photos uploaded!

WunderBlogs® & News

Nearby

Air Quality

  Air Quality AQ Index Pollutant
Not available.

Snow Depth

Station Depth Elevation

Earthquake Activity

City Distance Mag. Time & Date
Minimum magnitude displayed is 2.5.

Coastal Water Temperatures

Place Temperature

Stations

Nearby Weather Stations

Station Location Temp. Windchill Dew Point Humidity Wind Precip. Elev Updated Type